createdAt,value
2023-04-10T00:01:53.217Z,14.33
2023-04-10T00:04:56.962Z,6.57
2023-04-10T00:08:03.510Z,7.93
2023-04-10T00:11:07.442Z,6.13
2023-04-10T00:14:11.125Z,6.40
2023-04-10T00:17:14.968Z,6.30
2023-04-10T00:20:18.875Z,6.33
2023-04-10T00:23:24.516Z,6.70
2023-04-10T00:26:28.089Z,7.37
2023-04-10T00:29:31.705Z,7.90
2023-04-10T00:32:35.460Z,7.07
2023-04-10T00:35:39.223Z,7.80
2023-04-10T00:38:44.389Z,6.83
2023-04-10T00:41:48.203Z,6.57
2023-04-10T00:44:51.932Z,6.30
2023-04-10T00:47:57.210Z,6.07
2023-04-10T00:51:01.825Z,6.13
2023-04-10T00:54:09.654Z,5.63
2023-04-10T00:57:13.652Z,6.00
2023-04-10T01:00:18.364Z,6.20
2023-04-10T01:03:26.055Z,5.87
2023-04-10T01:06:41.400Z,6.07
2023-04-10T01:09:54.479Z,6.20
2023-04-10T01:13:08.090Z,6.13
2023-04-10T01:16:18.192Z,6.27
2023-04-10T01:19:32.169Z,6.57
2023-04-10T01:22:39.309Z,6.07
2023-04-10T01:25:47.706Z,6.83
2023-04-10T01:29:01.087Z,6.43
2023-04-10T01:32:12.618Z,6.30
2023-04-10T01:35:18.024Z,6.17
2023-04-10T01:38:26.901Z,6.23
2023-04-10T01:41:31.856Z,7.17
2023-04-10T01:44:40.013Z,6.77
2023-04-10T01:47:44.707Z,6.93
2023-04-10T01:50:49.356Z,6.93
2023-04-10T01:53:54.076Z,7.10
2023-04-10T01:57:04.262Z,6.97
2023-04-10T02:00:18.448Z,7.13
2023-04-10T02:03:23.046Z,6.80
2023-04-10T02:06:34.323Z,7.73
2023-04-10T02:09:49.533Z,7.30
2023-04-10T02:12:57.278Z,7.77
2023-04-10T02:16:07.315Z,7.47
2023-04-10T02:19:12.571Z,7.00
2023-04-10T02:22:17.957Z,7.43
2023-04-10T02:25:22.016Z,7.97
2023-04-10T02:28:26.351Z,7.30
2023-04-10T02:31:31.484Z,7.37
2023-04-10T02:34:35.145Z,7.60
2023-04-10T02:37:38.900Z,7.37
2023-04-10T02:40:43.776Z,7.23
2023-04-10T02:43:52.846Z,7.77
2023-04-10T02:47:04.285Z,9.00
2023-04-10T02:50:11.657Z,8.10
2023-04-10T02:53:20.231Z,9.07
2023-04-10T02:56:23.938Z,8.17
2023-04-10T02:59:27.980Z,8.40
2023-04-10T03:02:33.472Z,8.23
2023-04-10T03:05:44.102Z,8.70
2023-04-10T03:08:48.225Z,8.30
2023-04-10T03:11:51.949Z,9.27
2023-04-10T03:14:55.928Z,8.07
2023-04-10T03:18:01.219Z,8.77
2023-04-10T03:21:05.509Z,8.10
2023-04-10T03:24:09.416Z,8.50
2023-04-10T03:27:13.089Z,8.47
2023-04-10T03:30:17.415Z,8.53
2023-04-10T03:33:23.635Z,8.73
2023-04-10T03:36:27.678Z,9.10
2023-04-10T03:39:31.659Z,9.70
2023-04-10T03:42:35.315Z,8.67
2023-04-10T03:45:39.625Z,8.80
2023-04-10T03:48:45.193Z,8.00
2023-04-10T03:51:49.013Z,8.50
2023-04-10T03:54:53.630Z,8.57
2023-04-10T03:58:03.139Z,8.60
2023-04-10T04:01:08.323Z,8.50
2023-04-10T04:04:31.635Z,8.33
2023-04-10T04:07:58.627Z,9.00
2023-04-10T04:11:33.659Z,8.60
2023-04-10T04:14:45.489Z,9.37
2023-04-10T04:17:55.112Z,9.20
2023-04-10T04:21:21.224Z,10.07
2023-04-10T04:24:40.716Z,9.83
2023-04-10T04:28:01.601Z,10.23
2023-04-10T04:31:34.320Z,9.50
2023-04-10T04:34:56.357Z,9.00
2023-04-10T04:38:21.744Z,10.47
2023-04-10T04:41:44.187Z,9.87
2023-04-10T04:44:54.628Z,10.43
2023-04-10T04:48:15.326Z,9.23
2023-04-10T04:51:33.003Z,9.67
2023-04-10T04:54:45.270Z,9.53
2023-04-10T04:57:59.837Z,10.13
2023-04-10T05:01:36.060Z,9.20
2023-04-10T05:04:48.569Z,10.67
2023-04-10T05:08:21.348Z,10.43
2023-04-10T05:11:43.561Z,10.73
2023-04-10T05:14:55.087Z,11.10
2023-04-10T05:18:14.424Z,12.00
2023-04-10T05:21:33.206Z,11.03
2023-04-10T05:24:41.595Z,11.07
2023-04-10T05:27:53.046Z,11.07
2023-04-10T05:31:35.336Z,10.57
2023-04-10T05:34:50.491Z,10.73
2023-04-10T05:38:26.702Z,10.30
2023-04-10T05:42:00.093Z,9.73
2023-04-10T05:45:40.858Z,10.20
2023-04-10T05:49:18.620Z,9.10
2023-04-10T05:52:41.766Z,8.80
2023-04-10T05:56:23.689Z,8.83
2023-04-10T05:59:59.855Z,8.10
2023-04-10T06:03:39.380Z,8.43
2023-04-10T06:06:43.612Z,7.87
2023-04-10T06:09:47.545Z,7.67
2023-04-10T06:12:51.517Z,7.30
2023-04-10T06:15:58.934Z,6.83
2023-04-10T06:19:05.127Z,7.03
2023-04-10T06:22:08.964Z,6.53
2023-04-10T06:25:12.865Z,6.80
2023-04-10T06:28:17.359Z,6.70
2023-04-10T06:31:26.039Z,6.20
2023-04-10T06:34:31.950Z,6.33
2023-04-10T06:37:40.206Z,6.80
2023-04-10T06:40:44.039Z,6.33
2023-04-10T06:43:47.806Z,5.63
2023-04-10T06:46:51.841Z,6.00
2023-04-10T06:49:57.246Z,5.63
2023-04-10T06:53:01.357Z,5.57
2023-04-10T06:56:05.676Z,6.20
2023-04-10T06:59:09.532Z,5.93
2023-04-10T07:02:13.607Z,6.33
2023-04-10T07:05:19.177Z,5.80
2023-04-10T07:08:22.992Z,6.00
2023-04-10T07:11:26.774Z,6.10
2023-04-10T07:14:30.567Z,5.90
2023-04-10T07:17:34.513Z,5.17
2023-04-10T07:20:39.765Z,5.07
2023-04-10T07:23:43.551Z,5.67
2023-04-10T07:26:47.731Z,6.30
2023-04-10T07:29:51.581Z,6.00
2023-04-10T07:32:55.453Z,5.33
2023-04-10T07:36:02.879Z,5.70
2023-04-10T07:39:06.620Z,5.20
2023-04-10T07:42:11.618Z,9.60
2023-04-10T07:45:15.878Z,7.17
2023-04-10T07:48:19.894Z,5.50
2023-04-10T07:51:25.367Z,5.23
2023-04-10T07:54:29.373Z,4.87
2023-04-10T07:57:33.667Z,4.47
2023-04-10T08:00:37.924Z,4.17
2023-04-10T08:03:42.406Z,3.80
2023-04-10T08:06:47.875Z,3.83
2023-04-10T08:09:51.885Z,3.97
2023-04-10T08:12:55.727Z,3.70
2023-04-10T08:15:59.456Z,3.80
2023-04-10T08:19:04.111Z,3.90
2023-04-10T08:22:09.505Z,3.20
2023-04-10T08:25:13.376Z,3.40
2023-04-10T08:28:17.145Z,3.13
2023-04-10T08:31:22.068Z,3.53
2023-04-10T08:34:26.003Z,3.00
2023-04-10T08:37:31.175Z,3.13
2023-04-10T08:40:39.306Z,3.27
2023-04-10T08:43:43.892Z,2.80
2023-04-10T08:46:48.709Z,2.93
2023-04-10T08:49:57.812Z,2.40
2023-04-10T08:53:09.856Z,2.90
2023-04-10T08:56:15.926Z,2.60
2023-04-10T08:59:20.247Z,3.10
2023-04-10T09:02:24.501Z,2.90
2023-04-10T09:05:29.708Z,2.70
2023-04-10T09:08:35.826Z,2.70
2023-04-10T09:12:02.792Z,2.73
2023-04-10T09:15:07.663Z,3.10
2023-04-10T09:18:11.598Z,3.53
2023-04-10T09:21:17.511Z,2.63
2023-04-10T09:24:23.007Z,2.77
2023-04-10T09:27:32.751Z,2.40
2023-04-10T09:30:39.573Z,2.70
2023-04-10T09:33:43.374Z,3.07
2023-04-10T09:36:55.742Z,3.00
2023-04-10T09:40:01.156Z,2.90
2023-04-10T09:43:18.879Z,7.70
2023-04-10T09:46:29.096Z,2.83
2023-04-10T09:49:48.571Z,3.13
2023-04-10T09:52:59.417Z,3.30
2023-04-10T09:56:05.914Z,3.40
2023-04-10T09:59:10.595Z,2.83
2023-04-10T10:02:15.711Z,3.27
2023-04-10T10:05:20.661Z,2.90
2023-04-10T10:08:26.439Z,3.57
2023-04-10T10:11:35.853Z,3.40
2023-04-10T10:14:47.468Z,2.73
2023-04-10T10:17:57.817Z,3.30
2023-04-10T10:21:03.108Z,3.57
2023-04-10T10:24:10.107Z,3.80
2023-04-10T10:27:16.597Z,3.97
2023-04-10T10:30:30.166Z,3.93
2023-04-10T10:33:37.284Z,4.17
2023-04-10T10:36:42.249Z,4.40
2023-04-10T10:39:55.595Z,4.20
2023-04-10T10:43:09.394Z,4.40
2023-04-10T10:46:19.131Z,5.13
2023-04-10T10:49:23.020Z,4.57
2023-04-10T10:52:44.677Z,4.83
2023-04-10T10:55:48.620Z,4.47
2023-04-10T10:58:56.429Z,4.40
2023-04-10T11:02:17.269Z,4.03
2023-04-10T11:05:51.373Z,4.10
2023-04-10T11:08:55.370Z,4.60
2023-04-10T11:12:00.903Z,3.80
2023-04-10T11:15:07.717Z,3.83
2023-04-10T11:18:12.429Z,3.73
2023-04-10T11:21:17.735Z,3.83
2023-04-10T11:24:21.660Z,3.80
2023-04-10T11:27:45.089Z,4.43
2023-04-10T11:30:50.596Z,4.27
2023-04-10T11:34:03.868Z,3.40
2023-04-10T11:37:07.836Z,3.93
2023-04-10T11:40:12.634Z,3.80
2023-04-10T11:43:16.631Z,3.70
2023-04-10T11:46:22.222Z,3.70
2023-04-10T11:49:28.440Z,3.83
2023-04-10T11:52:33.006Z,4.20
2023-04-10T11:55:39.854Z,4.30
2023-04-10T11:58:44.033Z,4.27
2023-04-10T12:01:49.425Z,3.60
2023-04-10T12:04:59.996Z,3.80
2023-04-10T12:08:04.010Z,4.00
2023-04-10T12:11:08.447Z,3.80
2023-04-10T12:14:12.409Z,4.10
2023-04-10T12:17:18.777Z,3.83
2023-04-10T12:20:26.746Z,4.13
2023-04-10T12:23:31.749Z,4.00
2023-04-10T12:26:35.748Z,3.77
2023-04-10T12:29:39.683Z,3.13
2023-04-10T12:32:53.797Z,3.50
2023-04-10T12:35:57.878Z,3.00
2023-04-10T12:39:02.752Z,3.67
2023-04-10T12:42:13.471Z,3.60
2023-04-10T12:45:17.219Z,3.60
2023-04-10T12:48:26.330Z,3.90
2023-04-10T12:51:48.123Z,4.00
2023-04-10T12:54:52.122Z,3.47
2023-04-10T12:57:57.126Z,3.30
2023-04-10T13:01:05.574Z,3.80
2023-04-10T13:04:12.693Z,3.57
2023-04-10T13:07:16.644Z,3.33
2023-04-10T13:10:20.531Z,3.03
2023-04-10T13:13:24.330Z,3.70
2023-04-10T13:16:28.286Z,3.50
2023-04-10T13:19:33.641Z,3.40
2023-04-10T13:22:37.496Z,3.43
2023-04-10T13:25:43.215Z,3.53
2023-04-10T13:28:46.972Z,3.53
2023-04-10T13:31:50.939Z,4.93
2023-04-10T13:34:57.506Z,3.30
2023-04-10T13:38:02.332Z,3.97
2023-04-10T13:41:06.504Z,3.67
2023-04-10T13:44:10.284Z,3.83
2023-04-10T13:47:14.157Z,3.80
2023-04-10T13:50:19.883Z,4.00
2023-04-10T13:53:23.742Z,4.00
2023-04-10T13:56:27.695Z,4.23
2023-04-10T13:59:31.672Z,4.10
2023-04-10T14:02:35.754Z,3.53
2023-04-10T14:05:41.335Z,3.30
2023-04-10T14:08:45.238Z,4.33
2023-04-10T14:11:48.953Z,4.27
2023-04-10T14:14:52.776Z,4.20
2023-04-10T14:17:56.569Z,3.67
2023-04-10T14:21:01.885Z,3.83
2023-04-10T14:24:05.797Z,3.50
2023-04-10T14:27:11.538Z,4.83
2023-04-10T14:30:16.892Z,4.60
2023-04-10T14:33:21.531Z,7.00
2023-04-10T14:36:28.076Z,5.07
2023-04-10T14:39:33.139Z,4.47
2023-04-10T14:42:36.956Z,5.73
2023-04-10T14:45:40.905Z,5.40
2023-04-10T14:48:44.743Z,4.03
2023-04-10T14:51:49.990Z,4.70
2023-04-10T14:54:53.872Z,4.57
2023-04-10T14:57:58.786Z,3.93
2023-04-10T15:01:03.032Z,4.40
2023-04-10T15:04:07.084Z,4.20
2023-04-10T15:07:12.446Z,3.47
2023-04-10T15:10:16.231Z,3.40
2023-04-10T15:13:20.922Z,4.27
2023-04-10T15:16:24.761Z,4.57
2023-04-10T15:19:28.694Z,3.67
2023-04-10T15:22:34.528Z,4.20
2023-04-10T15:25:38.419Z,3.67
2023-04-10T15:28:43.237Z,3.63
2023-04-10T15:31:47.094Z,3.93
2023-04-10T15:34:50.911Z,3.87
2023-04-10T15:37:56.291Z,5.07
2023-04-10T15:41:00.106Z,3.87
2023-04-10T15:44:04.057Z,3.73
2023-04-10T15:47:07.927Z,4.37
2023-04-10T15:50:12.321Z,4.30
2023-04-10T15:53:17.628Z,6.23
2023-04-10T15:56:21.883Z,4.43
2023-04-10T15:59:25.925Z,4.40
2023-04-10T16:02:29.888Z,5.33
2023-04-10T16:05:33.813Z,4.83
2023-04-10T16:08:39.148Z,5.23
2023-04-10T16:11:43.049Z,5.90
2023-04-10T16:14:46.863Z,5.93
2023-04-10T16:17:50.978Z,5.63
2023-04-10T16:20:55.168Z,5.97
2023-04-10T16:24:01.123Z,5.97
2023-04-10T16:27:05.373Z,6.43
2023-04-10T16:30:12.061Z,8.43
2023-04-10T16:33:15.932Z,7.57
2023-04-10T16:36:19.853Z,7.07
2023-04-10T16:39:25.195Z,7.30
2023-04-10T16:42:29.171Z,8.27
2023-04-10T16:45:32.998Z,8.63
2023-04-10T16:48:36.859Z,7.93
2023-04-10T16:51:40.693Z,8.40
2023-04-10T16:54:46.272Z,8.20
2023-04-10T16:57:50.113Z,8.90
2023-04-10T17:00:54.072Z,10.03
2023-04-10T17:03:58.068Z,9.40
2023-04-10T17:07:01.938Z,8.00
2023-04-10T17:10:08.113Z,8.67
2023-04-10T17:13:11.931Z,9.27
2023-04-10T17:16:15.768Z,8.67
2023-04-10T17:19:19.601Z,11.70
2023-04-10T17:22:23.633Z,10.40
2023-04-10T17:25:29.069Z,10.03
2023-04-10T17:28:33.512Z,7.43
2023-04-10T17:31:37.412Z,7.70
2023-04-10T17:34:41.325Z,7.53
2023-04-10T17:37:45.323Z,7.07
2023-04-10T17:40:50.584Z,11.43
2023-04-10T17:43:54.461Z,7.70
2023-04-10T17:46:58.459Z,7.30
2023-04-10T17:50:02.440Z,8.17
2023-04-10T17:53:06.216Z,8.27
2023-04-10T17:56:19.748Z,8.40
2023-04-10T17:59:23.609Z,8.63
2023-04-10T18:02:27.558Z,8.80
2023-04-10T18:05:32.120Z,11.07
2023-04-10T18:08:36.419Z,10.40
2023-04-10T18:11:41.747Z,9.90
2023-04-10T18:14:48.376Z,9.43
2023-04-10T18:17:52.304Z,10.40
2023-04-10T18:20:56.197Z,10.00
2023-04-10T18:24:00.100Z,12.23
2023-04-10T18:27:05.515Z,9.70
2023-04-10T18:30:10.597Z,11.50
2023-04-10T18:33:20.729Z,11.10
2023-04-10T18:36:24.506Z,10.63
2023-04-10T18:39:28.376Z,9.63
2023-04-10T18:42:33.643Z,9.77
2023-04-10T18:45:37.373Z,9.70
2023-04-10T18:48:43.295Z,10.63
2023-04-10T18:51:47.149Z,10.50
2023-04-10T18:54:51.051Z,10.00
2023-04-10T18:57:56.238Z,9.73
2023-04-10T19:01:00.267Z,9.73
2023-04-10T19:04:04.300Z,10.87
2023-04-10T19:07:08.731Z,10.90
2023-04-10T19:10:12.954Z,9.77
2023-04-10T19:13:18.255Z,10.50
2023-04-10T19:16:22.324Z,10.10
2023-04-10T19:19:26.255Z,10.20
2023-04-10T19:22:30.164Z,10.50
2023-04-10T19:25:34.464Z,9.83
2023-04-10T19:28:39.773Z,10.60
2023-04-10T19:31:43.674Z,10.37
2023-04-10T19:34:51.476Z,11.00
2023-04-10T19:37:58.255Z,10.57
2023-04-10T19:41:02.189Z,12.80
2023-04-10T19:44:07.481Z,16.90
2023-04-10T19:47:11.281Z,20.57
2023-04-10T19:50:15.155Z,17.67
2023-04-10T19:53:18.963Z,17.17
2023-04-10T19:56:23.051Z,16.03
2023-04-10T19:59:28.348Z,15.73
2023-04-10T20:02:32.392Z,14.10
2023-04-10T20:05:36.567Z,14.07
2023-04-10T20:08:40.419Z,15.53
2023-04-10T20:11:44.318Z,17.00
2023-04-10T20:14:49.643Z,17.57
2023-04-10T20:17:53.460Z,16.63
2023-04-10T20:20:57.367Z,17.50
2023-04-10T20:24:01.599Z,15.37
2023-04-10T20:27:05.580Z,17.90
2023-04-10T20:30:11.591Z,19.17
2023-04-10T20:33:15.382Z,14.37
2023-04-10T20:36:19.408Z,13.93
2023-04-10T20:39:24.560Z,11.90
2023-04-10T20:42:28.548Z,11.63
2023-04-10T20:45:35.700Z,11.77
2023-04-10T20:48:39.599Z,10.33
2023-04-10T20:51:43.509Z,9.27
2023-04-10T20:54:47.308Z,8.90
2023-04-10T20:57:51.078Z,9.53
2023-04-10T21:00:57.037Z,9.13
2023-04-10T21:04:02.106Z,8.30
2023-04-10T21:07:06.127Z,8.67
2023-04-10T21:10:10.422Z,8.77
2023-04-10T21:13:15.105Z,8.10
2023-04-10T21:16:20.425Z,8.93
2023-04-10T21:19:24.196Z,8.70
2023-04-10T21:22:29.212Z,8.83
2023-04-10T21:25:34.942Z,10.10
2023-04-10T21:28:38.848Z,10.03
2023-04-10T21:31:44.170Z,10.77
2023-04-10T21:34:48.217Z,10.83
2023-04-10T21:37:58.328Z,11.07
2023-04-10T21:41:03.376Z,11.67
2023-04-10T21:44:08.324Z,11.17
2023-04-10T21:47:13.578Z,12.47
2023-04-10T21:50:17.549Z,10.93
2023-04-10T21:53:21.349Z,11.13
2023-04-10T21:56:25.160Z,11.87
2023-04-10T21:59:31.943Z,12.40
2023-04-10T22:02:37.384Z,12.03
2023-04-10T22:05:41.375Z,11.80
2023-04-10T22:08:45.198Z,11.87
2023-04-10T22:11:48.923Z,10.73
2023-04-10T22:14:53.232Z,11.73
2023-04-10T22:17:58.493Z,12.23
2023-04-10T22:21:02.238Z,12.40
2023-04-10T22:24:06.432Z,11.77
2023-04-10T22:27:10.440Z,12.87
2023-04-10T22:30:14.708Z,12.40
2023-04-10T22:33:20.029Z,11.73
2023-04-10T22:36:24.061Z,11.47
2023-04-10T22:39:27.888Z,10.60
2023-04-10T22:42:32.083Z,15.57
2023-04-10T22:45:35.922Z,12.37
2023-04-10T22:48:41.698Z,10.50
2023-04-10T22:51:47.017Z,12.23
2023-04-10T22:54:50.853Z,10.80
2023-04-10T22:57:54.594Z,11.97
2023-04-10T23:00:58.489Z,10.93
2023-04-10T23:04:03.789Z,10.10
2023-04-10T23:07:07.738Z,9.27
2023-04-10T23:10:11.824Z,9.30
2023-04-10T23:13:15.571Z,9.17
2023-04-10T23:16:19.248Z,9.27
2023-04-10T23:19:24.493Z,9.43
2023-04-10T23:22:29.730Z,8.87
2023-04-10T23:25:33.412Z,8.77
2023-04-10T23:28:37.003Z,8.30
2023-04-10T23:31:40.711Z,9.03
2023-04-10T23:34:45.967Z,7.43
2023-04-10T23:37:51.753Z,8.83
2023-04-10T23:40:55.689Z,8.03
2023-04-10T23:43:59.344Z,8.73
2023-04-10T23:47:03.232Z,8.43
2023-04-10T23:50:09.768Z,7.60
2023-04-10T23:53:14.719Z,8.17
2023-04-10T23:56:18.602Z,7.33
2023-04-10T23:59:22.371Z,7.60
